Gould, AR (71643)

5:32 AM CDT on March 25, 2017 (GMT -0500)
MUP499 | | Change Station

Elev 170 ft 33.97 °N, 91.55 °W | Updated 1 hour ago

Overcast
Overcast
67.0 °F
Feels Like 67.0 °F
N
-
Wind Variable Wind from North

Today
High -- | Low -- °F
--% Chance of Precip.
Yesterday
High -- | Low -- °F
Precip. -- in
Pressure 29.83 in
Visibility 10.0 miles
Clouds Overcast 4400 ft
Dew Point Not available.
Humidity Not available.
Rainfall in
Snow Depth Not available.
7:02 AM 7:21 PM
Waning Crescent, 9% visible
METAR KPBF 250953Z AUTO 17007KT 10SM OVC044 16/15 A2984 RMK AO2 SLP101 T01610150
Pressure 29.83 in
Visibility 10.0 miles
Clouds Overcast 4400 ft
Dew Point Not available.
Humidity Not available.
Rainfall in
Snow Depth Not available.
7:02 AM 7:21 PM
Waning Crescent, 9% visible
METAR KPBF 250953Z AUTO 17007KT 10SM OVC044 16/15 A2984 RMK AO2 SLP101 T01610150

Get Severe Weather Alerts

Thanks for signing up!

Be on the lookout for a verification email in your inbox.

You'll start receiving the daily forecast at 8 AM.

×

10-Day Weather Forecast

Almanac

Astronomy

Mar. 25, 2017 Rise Set
Actual Time
Civil Twilight
Nautical Twilight
Astronomical Twilight
Moon
Length of Visible Light
Length of Day
Tomorrow will be .
, % of the Moon is Illuminated

Today's Extremes

State Highs State Lows

Community

WunderPhotos

Upload Photos

1,962,540 photos uploaded!

WunderBlog® & News

Nearby

Air Quality

  Air Quality AQ Index Pollutant
Not available.

Snow Depth

Station Depth Elevation

Earthquake Activity

City Distance Mag. Time & Date
Minimum magnitude displayed is 2.5.

Earthquake Activity

City Distance Mag. Time & Date
Minimum magnitude displayed is 2.5.

Coastal Water Temperatures

Place Temperature

Stations

Nearby Weather Stations

Station Location Temp. Windchill Dew Point Humidity Wind Precip. Elev Updated Type
                   

Watches & Warnings

There are currently no watches in effect.